sensor_id;sensor_type;location;lat;lon;timestamp;P1;durP1;ratioP1;P2;durP2;ratioP2
28130;SDS011;15418;42.634;23.374;2022-08-19T00:00:08;7.93;;;5.95;;
28130;SDS011;15418;42.634;23.374;2022-08-19T00:02:35;9.45;;;6.40;;
28130;SDS011;15418;42.634;23.374;2022-08-19T00:05:01;9.65;;;6.45;;
28130;SDS011;15418;42.634;23.374;2022-08-19T00:07:35;9.82;;;6.38;;
28130;SDS011;15418;42.634;23.374;2022-08-19T00:10:02;7.75;;;6.45;;
28130;SDS011;15418;42.634;23.374;2022-08-19T00:12:30;9.32;;;6.22;;
28130;SDS011;15418;42.634;23.374;2022-08-19T00:14:55;9.32;;;6.35;;
28130;SDS011;15418;42.634;23.374;2022-08-19T00:17:20;7.60;;;5.97;;
28130;SDS011;15418;42.634;23.374;2022-08-19T00:19:46;10.10;;;6.20;;
28130;SDS011;15418;42.634;23.374;2022-08-19T00:22:11;8.68;;;6.13;;
28130;SDS011;15418;42.634;23.374;2022-08-19T00:24:37;14.30;;;6.43;;
28130;SDS011;15418;42.634;23.374;2022-08-19T00:27:03;9.77;;;6.05;;
28130;SDS011;15418;42.634;23.374;2022-08-19T00:29:30;11.00;;;6.82;;
28130;SDS011;15418;42.634;23.374;2022-08-19T00:31:56;10.20;;;6.53;;
28130;SDS011;15418;42.634;23.374;2022-08-19T00:34:23;10.25;;;6.40;;
28130;SDS011;15418;42.634;23.374;2022-08-19T00:36:54;12.35;;;6.97;;
28130;SDS011;15418;42.634;23.374;2022-08-19T00:39:20;8.85;;;6.88;;
28130;SDS011;15418;42.634;23.374;2022-08-19T00:41:46;7.18;;;6.20;;
28130;SDS011;15418;42.634;23.374;2022-08-19T00:44:19;9.18;;;6.32;;
28130;SDS011;15418;42.634;23.374;2022-08-19T00:46:50;7.97;;;6.00;;
28130;SDS011;15418;42.634;23.374;2022-08-19T00:51:59;9.15;;;6.63;;
28130;SDS011;15418;42.634;23.374;2022-08-19T00:54:28;11.05;;;6.65;;
28130;SDS011;15418;42.634;23.374;2022-08-19T00:56:56;8.50;;;6.50;;
28130;SDS011;15418;42.634;23.374;2022-08-19T00:59:23;9.15;;;6.93;;
28130;SDS011;15418;42.634;23.374;2022-08-19T01:01:50;8.90;;;6.03;;
28130;SDS011;15418;42.634;23.374;2022-08-19T01:04:16;9.95;;;6.53;;
28130;SDS011;15418;42.634;23.374;2022-08-19T01:06:44;10.20;;;6.05;;
28130;SDS011;15418;42.634;23.374;2022-08-19T01:09:10;7.38;;;6.68;;
28130;SDS011;15418;42.634;23.374;2022-08-19T01:11:36;10.23;;;7.30;;
28130;SDS011;15418;42.634;23.374;2022-08-19T01:14:08;10.48;;;7.32;;
28130;SDS011;15418;42.634;23.374;2022-08-19T01:16:35;9.18;;;6.13;;
28130;SDS011;15418;42.634;23.374;2022-08-19T01:19:07;10.18;;;6.22;;
28130;SDS011;15418;42.634;23.374;2022-08-19T01:24:07;7.25;;;6.25;;
28130;SDS011;15418;42.634;23.374;2022-08-19T01:26:37;7.60;;;5.90;;
28130;SDS011;15418;42.634;23.374;2022-08-19T01:29:04;12.85;;;6.65;;
28130;SDS011;15418;42.634;23.374;2022-08-19T01:31:36;7.82;;;6.03;;
28130;SDS011;15418;42.634;23.374;2022-08-19T01:34:04;7.53;;;6.43;;
28130;SDS011;15418;42.634;23.374;2022-08-19T01:38:55;10.73;;;6.13;;
28130;SDS011;15418;42.634;23.374;2022-08-19T01:41:22;9.57;;;6.38;;
28130;SDS011;15418;42.634;23.374;2022-08-19T01:43:48;11.23;;;6.65;;
28130;SDS011;15418;42.634;23.374;2022-08-19T01:46:15;14.27;;;7.38;;
28130;SDS011;15418;42.634;23.374;2022-08-19T01:48:41;12.05;;;6.93;;
28130;SDS011;15418;42.634;23.374;2022-08-19T01:51:08;7.53;;;6.78;;
28130;SDS011;15418;42.634;23.374;2022-08-19T01:53:35;9.27;;;6.53;;
28130;SDS011;15418;42.634;23.374;2022-08-19T01:56:02;9.93;;;6.43;;
28130;SDS011;15418;42.634;23.374;2022-08-19T01:58:34;7.70;;;6.35;;
28130;SDS011;15418;42.634;23.374;2022-08-19T02:01:03;9.68;;;6.97;;
28130;SDS011;15418;42.634;23.374;2022-08-19T02:03:30;11.45;;;7.10;;
28130;SDS011;15418;42.634;23.374;2022-08-19T02:05:56;9.70;;;7.00;;
28130;SDS011;15418;42.634;23.374;2022-08-19T02:08:27;9.38;;;7.18;;
28130;SDS011;15418;42.634;23.374;2022-08-19T02:10:54;12.63;;;7.50;;
28130;SDS011;15418;42.634;23.374;2022-08-19T02:13:20;12.75;;;6.82;;
28130;SDS011;15418;42.634;23.374;2022-08-19T02:15:46;11.45;;;7.50;;
28130;SDS011;15418;42.634;23.374;2022-08-19T02:18:11;9.98;;;7.47;;
28130;SDS011;15418;42.634;23.374;2022-08-19T02:20:37;9.30;;;6.93;;
28130;SDS011;15418;42.634;23.374;2022-08-19T02:23:05;15.48;;;7.47;;
28130;SDS011;15418;42.634;23.374;2022-08-19T02:25:31;15.85;;;7.88;;
28130;SDS011;15418;42.634;23.374;2022-08-19T02:27:57;10.40;;;7.72;;
28130;SDS011;15418;42.634;23.374;2022-08-19T02:30:22;10.18;;;7.75;;
28130;SDS011;15418;42.634;23.374;2022-08-19T02:32:49;10.65;;;7.60;;
28130;SDS011;15418;42.634;23.374;2022-08-19T02:35:15;15.18;;;8.40;;
28130;SDS011;15418;42.634;23.374;2022-08-19T02:37:41;14.25;;;7.30;;
28130;SDS011;15418;42.634;23.374;2022-08-19T02:40:26;19.20;;;7.82;;
28130;SDS011;15418;42.634;23.374;2022-08-19T02:42:52;8.65;;;7.35;;
28130;SDS011;15418;42.634;23.374;2022-08-19T02:45:17;11.52;;;7.35;;
28130;SDS011;15418;42.634;23.374;2022-08-19T02:47:43;8.95;;;7.38;;
28130;SDS011;15418;42.634;23.374;2022-08-19T02:50:08;11.35;;;7.75;;
28130;SDS011;15418;42.634;23.374;2022-08-19T02:52:34;10.18;;;6.93;;
28130;SDS011;15418;42.634;23.374;2022-08-19T02:55:00;9.63;;;7.60;;
28130;SDS011;15418;42.634;23.374;2022-08-19T02:57:29;10.90;;;7.50;;
28130;SDS011;15418;42.634;23.374;2022-08-19T02:59:56;9.82;;;6.60;;
28130;SDS011;15418;42.634;23.374;2022-08-19T03:02:22;11.30;;;7.10;;
28130;SDS011;15418;42.634;23.374;2022-08-19T03:04:48;10.90;;;7.57;;
28130;SDS011;15418;42.634;23.374;2022-08-19T03:07:14;9.25;;;6.80;;
28130;SDS011;15418;42.634;23.374;2022-08-19T03:09:40;9.82;;;7.20;;
28130;SDS011;15418;42.634;23.374;2022-08-19T03:12:09;10.98;;;7.05;;
28130;SDS011;15418;42.634;23.374;2022-08-19T03:14:35;15.45;;;7.25;;
28130;SDS011;15418;42.634;23.374;2022-08-19T03:17:02;12.85;;;7.65;;
28130;SDS011;15418;42.634;23.374;2022-08-19T03:19:29;10.15;;;7.47;;
28130;SDS011;15418;42.634;23.374;2022-08-19T03:21:56;9.23;;;7.40;;
28130;SDS011;15418;42.634;23.374;2022-08-19T03:24:24;9.68;;;7.57;;
28130;SDS011;15418;42.634;23.374;2022-08-19T03:26:53;16.58;;;8.50;;
28130;SDS011;15418;42.634;23.374;2022-08-19T03:29:26;13.57;;;7.65;;
28130;SDS011;15418;42.634;23.374;2022-08-19T03:31:53;18.23;;;8.23;;
28130;SDS011;15418;42.634;23.374;2022-08-19T03:34:21;13.00;;;8.27;;
28130;SDS011;15418;42.634;23.374;2022-08-19T03:36:51;12.52;;;8.30;;
28130;SDS011;15418;42.634;23.374;2022-08-19T03:39:17;15.05;;;7.47;;
28130;SDS011;15418;42.634;23.374;2022-08-19T03:41:43;18.30;;;8.50;;
28130;SDS011;15418;42.634;23.374;2022-08-19T03:44:09;16.23;;;7.78;;
28130;SDS011;15418;42.634;23.374;2022-08-19T03:46:35;13.27;;;8.15;;
28130;SDS011;15418;42.634;23.374;2022-08-19T03:49:02;14.50;;;7.47;;
28130;SDS011;15418;42.634;23.374;2022-08-19T03:51:36;18.00;;;8.05;;
28130;SDS011;15418;42.634;23.374;2022-08-19T03:54:04;11.18;;;7.07;;
28130;SDS011;15418;42.634;23.374;2022-08-19T03:56:33;12.82;;;8.57;;
28130;SDS011;15418;42.634;23.374;2022-08-19T03:59:00;15.70;;;8.00;;
28130;SDS011;15418;42.634;23.374;2022-08-19T04:01:28;12.30;;;7.30;;
28130;SDS011;15418;42.634;23.374;2022-08-19T04:03:55;13.80;;;8.02;;
28130;SDS011;15418;42.634;23.374;2022-08-19T04:06:24;13.98;;;7.70;;
28130;SDS011;15418;42.634;23.374;2022-08-19T04:08:54;16.85;;;8.43;;
28130;SDS011;15418;42.634;23.374;2022-08-19T04:11:21;13.27;;;9.20;;
28130;SDS011;15418;42.634;23.374;2022-08-19T04:13:49;12.45;;;7.68;;
28130;SDS011;15418;42.634;23.374;2022-08-19T04:16:19;14.52;;;7.85;;
28130;SDS011;15418;42.634;23.374;2022-08-19T04:18:46;14.43;;;7.70;;
28130;SDS011;15418;42.634;23.374;2022-08-19T04:21:16;12.30;;;8.32;;
28130;SDS011;15418;42.634;23.374;2022-08-19T04:23:44;12.40;;;7.47;;
28130;SDS011;15418;42.634;23.374;2022-08-19T04:26:17;12.13;;;7.72;;
28130;SDS011;15418;42.634;23.374;2022-08-19T04:28:45;19.30;;;11.88;;
28130;SDS011;15418;42.634;23.374;2022-08-19T04:31:18;16.48;;;10.90;;
28130;SDS011;15418;42.634;23.374;2022-08-19T04:33:46;21.58;;;8.23;;
28130;SDS011;15418;42.634;23.374;2022-08-19T04:36:19;11.70;;;9.05;;
28130;SDS011;15418;42.634;23.374;2022-08-19T04:38:52;15.23;;;9.55;;
28130;SDS011;15418;42.634;23.374;2022-08-19T04:41:20;13.27;;;8.68;;
28130;SDS011;15418;42.634;23.374;2022-08-19T04:44:04;15.57;;;7.88;;
28130;SDS011;15418;42.634;23.374;2022-08-19T04:46:30;15.02;;;8.55;;
28130;SDS011;15418;42.634;23.374;2022-08-19T04:48:57;14.63;;;8.88;;
28130;SDS011;15418;42.634;23.374;2022-08-19T04:51:24;15.25;;;9.80;;
28130;SDS011;15418;42.634;23.374;2022-08-19T04:53:53;15.48;;;8.68;;
28130;SDS011;15418;42.634;23.374;2022-08-19T04:56:19;10.57;;;8.48;;
28130;SDS011;15418;42.634;23.374;2022-08-19T04:58:46;11.55;;;8.75;;
28130;SDS011;15418;42.634;23.374;2022-08-19T05:01:12;12.57;;;7.95;;
28130;SDS011;15418;42.634;23.374;2022-08-19T05:03:43;13.50;;;8.90;;
28130;SDS011;15418;42.634;23.374;2022-08-19T05:06:10;20.23;;;11.23;;
28130;SDS011;15418;42.634;23.374;2022-08-19T05:08:38;18.95;;;11.00;;
28130;SDS011;15418;42.634;23.374;2022-08-19T05:11:18;18.88;;;9.23;;
28130;SDS011;15418;42.634;23.374;2022-08-19T05:13:46;22.25;;;9.55;;
28130;SDS011;15418;42.634;23.374;2022-08-19T05:16:13;19.30;;;10.60;;
28130;SDS011;15418;42.634;23.374;2022-08-19T05:18:40;15.68;;;8.70;;
28130;SDS011;15418;42.634;23.374;2022-08-19T05:21:24;15.05;;;8.48;;
28130;SDS011;15418;42.634;23.374;2022-08-19T05:26:38;15.85;;;9.25;;
28130;SDS011;15418;42.634;23.374;2022-08-19T05:29:05;20.17;;;9.90;;
28130;SDS011;15418;42.634;23.374;2022-08-19T05:31:32;15.13;;;9.38;;
28130;SDS011;15418;42.634;23.374;2022-08-19T05:33:58;13.82;;;8.73;;
28130;SDS011;15418;42.634;23.374;2022-08-19T05:36:28;14.55;;;9.00;;
28130;SDS011;15418;42.634;23.374;2022-08-19T05:39:03;19.23;;;10.13;;
28130;SDS011;15418;42.634;23.374;2022-08-19T05:41:49;26.30;;;13.63;;
28130;SDS011;15418;42.634;23.374;2022-08-19T05:44:22;18.77;;;9.35;;
28130;SDS011;15418;42.634;23.374;2022-08-19T05:46:49;28.75;;;9.38;;
28130;SDS011;15418;42.634;23.374;2022-08-19T05:49:18;20.80;;;9.63;;
28130;SDS011;15418;42.634;23.374;2022-08-19T05:51:45;22.95;;;9.45;;
28130;SDS011;15418;42.634;23.374;2022-08-19T05:54:10;18.00;;;9.02;;
28130;SDS011;15418;42.634;23.374;2022-08-19T05:56:38;12.98;;;9.30;;
28130;SDS011;15418;42.634;23.374;2022-08-19T05:59:08;18.73;;;10.13;;
28130;SDS011;15418;42.634;23.374;2022-08-19T06:01:39;15.57;;;8.98;;
28130;SDS011;15418;42.634;23.374;2022-08-19T06:04:09;15.87;;;9.60;;
28130;SDS011;15418;42.634;23.374;2022-08-19T06:06:35;13.52;;;8.40;;
28130;SDS011;15418;42.634;23.374;2022-08-19T06:09:02;10.68;;;8.40;;
28130;SDS011;15418;42.634;23.374;2022-08-19T06:11:54;21.70;;;9.05;;
28130;SDS011;15418;42.634;23.374;2022-08-19T06:14:23;16.13;;;8.20;;
28130;SDS011;15418;42.634;23.374;2022-08-19T06:16:52;14.60;;;8.95;;
28130;SDS011;15418;42.634;23.374;2022-08-19T06:19:20;13.85;;;9.75;;
28130;SDS011;15418;42.634;23.374;2022-08-19T06:21:48;18.42;;;9.93;;
28130;SDS011;15418;42.634;23.374;2022-08-19T06:24:17;8.98;;;6.85;;
28130;SDS011;15418;42.634;23.374;2022-08-19T06:26:45;14.10;;;7.30;;
28130;SDS011;15418;42.634;23.374;2022-08-19T06:29:13;14.55;;;7.80;;
28130;SDS011;15418;42.634;23.374;2022-08-19T06:31:44;10.10;;;6.65;;
28130;SDS011;15418;42.634;23.374;2022-08-19T06:34:13;14.43;;;6.68;;
28130;SDS011;15418;42.634;23.374;2022-08-19T06:36:41;8.80;;;5.80;;
28130;SDS011;15418;42.634;23.374;2022-08-19T06:39:12;7.60;;;5.30;;
28130;SDS011;15418;42.634;23.374;2022-08-19T06:41:45;17.77;;;6.28;;
28130;SDS011;15418;42.634;23.374;2022-08-19T06:44:12;13.85;;;5.70;;
28130;SDS011;15418;42.634;23.374;2022-08-19T06:46:38;17.25;;;6.88;;
28130;SDS011;15418;42.634;23.374;2022-08-19T06:49:05;21.25;;;6.88;;
28130;SDS011;15418;42.634;23.374;2022-08-19T06:51:33;11.55;;;6.07;;
28130;SDS011;15418;42.634;23.374;2022-08-19T06:53:59;9.60;;;6.00;;
28130;SDS011;15418;42.634;23.374;2022-08-19T06:56:28;16.17;;;6.03;;
28130;SDS011;15418;42.634;23.374;2022-08-19T06:59:05;20.52;;;9.85;;
28130;SDS011;15418;42.634;23.374;2022-08-19T07:01:47;14.03;;;6.90;;
28130;SDS011;15418;42.634;23.374;2022-08-19T07:04:15;13.63;;;5.90;;
28130;SDS011;15418;42.634;23.374;2022-08-19T07:06:43;11.35;;;5.78;;
28130;SDS011;15418;42.634;23.374;2022-08-19T07:09:09;10.27;;;5.97;;
28130;SDS011;15418;42.634;23.374;2022-08-19T07:11:36;10.80;;;5.85;;
28130;SDS011;15418;42.634;23.374;2022-08-19T07:14:01;11.23;;;6.28;;
28130;SDS011;15418;42.634;23.374;2022-08-19T07:16:27;13.98;;;6.88;;
28130;SDS011;15418;42.634;23.374;2022-08-19T07:18:53;9.80;;;6.22;;
28130;SDS011;15418;42.634;23.374;2022-08-19T07:21:21;10.07;;;7.18;;
28130;SDS011;15418;42.634;23.374;2022-08-19T07:23:49;18.33;;;7.30;;
28130;SDS011;15418;42.634;23.374;2022-08-19T07:26:20;17.17;;;6.82;;
28130;SDS011;15418;42.634;23.374;2022-08-19T07:28:50;18.08;;;7.60;;
28130;SDS011;15418;42.634;23.374;2022-08-19T07:31:17;19.45;;;6.55;;
28130;SDS011;15418;42.634;23.374;2022-08-19T07:33:48;11.57;;;5.47;;
28130;SDS011;15418;42.634;23.374;2022-08-19T07:36:16;17.50;;;6.50;;
28130;SDS011;15418;42.634;23.374;2022-08-19T07:38:44;15.05;;;6.25;;
28130;SDS011;15418;42.634;23.374;2022-08-19T07:41:13;13.75;;;5.55;;
28130;SDS011;15418;42.634;23.374;2022-08-19T07:43:41;16.42;;;6.18;;
28130;SDS011;15418;42.634;23.374;2022-08-19T07:46:08;13.85;;;5.50;;
28130;SDS011;15418;42.634;23.374;2022-08-19T07:48:34;14.48;;;5.55;;
28130;SDS011;15418;42.634;23.374;2022-08-19T07:51:00;13.20;;;6.00;;
28130;SDS011;15418;42.634;23.374;2022-08-19T07:53:28;19.83;;;5.38;;
28130;SDS011;15418;42.634;23.374;2022-08-19T07:56:00;12.45;;;5.32;;
28130;SDS011;15418;42.634;23.374;2022-08-19T07:58:27;9.55;;;5.28;;
28130;SDS011;15418;42.634;23.374;2022-08-19T08:00:53;12.85;;;5.07;;
28130;SDS011;15418;42.634;23.374;2022-08-19T08:03:19;19.42;;;5.60;;
28130;SDS011;15418;42.634;23.374;2022-08-19T08:06:07;17.77;;;5.60;;
28130;SDS011;15418;42.634;23.374;2022-08-19T08:08:52;10.93;;;5.03;;
28130;SDS011;15418;42.634;23.374;2022-08-19T08:11:35;16.52;;;5.60;;
28130;SDS011;15418;42.634;23.374;2022-08-19T08:14:06;19.02;;;5.35;;
28130;SDS011;15418;42.634;23.374;2022-08-19T08:16:34;18.92;;;5.40;;
28130;SDS011;15418;42.634;23.374;2022-08-19T08:19:05;6.70;;;4.65;;
28130;SDS011;15418;42.634;23.374;2022-08-19T08:21:32;16.08;;;5.45;;
28130;SDS011;15418;42.634;23.374;2022-08-19T08:23:58;12.23;;;5.22;;
28130;SDS011;15418;42.634;23.374;2022-08-19T08:26:24;14.85;;;5.18;;
28130;SDS011;15418;42.634;23.374;2022-08-19T08:28:50;11.43;;;4.88;;
28130;SDS011;15418;42.634;23.374;2022-08-19T08:31:17;13.82;;;5.50;;
28130;SDS011;15418;42.634;23.374;2022-08-19T08:33:44;13.82;;;5.75;;
28130;SDS011;15418;42.634;23.374;2022-08-19T08:36:10;8.25;;;3.65;;
28130;SDS011;15418;42.634;23.374;2022-08-19T08:38:38;8.95;;;4.55;;
28130;SDS011;15418;42.634;23.374;2022-08-19T08:41:09;14.65;;;4.65;;
28130;SDS011;15418;42.634;23.374;2022-08-19T08:43:44;7.90;;;4.72;;
28130;SDS011;15418;42.634;23.374;2022-08-19T08:51:52;21.88;;;5.25;;
28130;SDS011;15418;42.634;23.374;2022-08-19T08:54:26;10.00;;;5.03;;
28130;SDS011;15418;42.634;23.374;2022-08-19T08:57:07;9.43;;;4.57;;
28130;SDS011;15418;42.634;23.374;2022-08-19T08:59:40;7.15;;;4.85;;
28130;SDS011;15418;42.634;23.374;2022-08-19T09:02:08;10.32;;;4.55;;
28130;SDS011;15418;42.634;23.374;2022-08-19T09:04:35;12.73;;;4.70;;
28130;SDS011;15418;42.634;23.374;2022-08-19T09:09:52;8.50;;;4.65;;
28130;SDS011;15418;42.634;23.374;2022-08-19T09:15:16;7.43;;;4.35;;
28130;SDS011;15418;42.634;23.374;2022-08-19T09:17:47;6.20;;;3.88;;
28130;SDS011;15418;42.634;23.374;2022-08-19T09:20:14;14.20;;;4.25;;
28130;SDS011;15418;42.634;23.374;2022-08-19T09:22:43;10.93;;;4.25;;
28130;SDS011;15418;42.634;23.374;2022-08-19T09:25:10;6.65;;;4.10;;
28130;SDS011;15418;42.634;23.374;2022-08-19T09:27:38;15.18;;;4.53;;
28130;SDS011;15418;42.634;23.374;2022-08-19T09:30:06;8.45;;;4.60;;
28130;SDS011;15418;42.634;23.374;2022-08-19T09:32:32;10.85;;;4.00;;
28130;SDS011;15418;42.634;23.374;2022-08-19T09:34:58;9.38;;;3.67;;
28130;SDS011;15418;42.634;23.374;2022-08-19T09:37:25;12.40;;;4.70;;
28130;SDS011;15418;42.634;23.374;2022-08-19T09:39:51;8.02;;;4.00;;
28130;SDS011;15418;42.634;23.374;2022-08-19T09:42:17;6.60;;;3.97;;
28130;SDS011;15418;42.634;23.374;2022-08-19T09:44:44;5.85;;;3.95;;
28130;SDS011;15418;42.634;23.374;2022-08-19T09:47:12;8.57;;;4.00;;
28130;SDS011;15418;42.634;23.374;2022-08-19T09:49:41;8.10;;;4.00;;
28130;SDS011;15418;42.634;23.374;2022-08-19T09:52:09;7.65;;;4.22;;
28130;SDS011;15418;42.634;23.374;2022-08-19T09:54:36;12.20;;;3.97;;
28130;SDS011;15418;42.634;23.374;2022-08-19T09:57:02;7.97;;;4.10;;
28130;SDS011;15418;42.634;23.374;2022-08-19T09:59:28;10.10;;;3.90;;
28130;SDS011;15418;42.634;23.374;2022-08-19T10:01:54;13.10;;;6.40;;
28130;SDS011;15418;42.634;23.374;2022-08-19T10:04:22;8.35;;;3.60;;
28130;SDS011;15418;42.634;23.374;2022-08-19T10:06:49;11.27;;;4.35;;
28130;SDS011;15418;42.634;23.374;2022-08-19T10:09:18;11.88;;;3.75;;
28130;SDS011;15418;42.634;23.374;2022-08-19T10:11:44;18.10;;;4.43;;
28130;SDS011;15418;42.634;23.374;2022-08-19T10:14:14;9.05;;;4.55;;
28130;SDS011;15418;42.634;23.374;2022-08-19T10:16:41;10.25;;;4.97;;
28130;SDS011;15418;42.634;23.374;2022-08-19T10:19:07;6.93;;;4.28;;
28130;SDS011;15418;42.634;23.374;2022-08-19T10:21:34;13.43;;;4.63;;
28130;SDS011;15418;42.634;23.374;2022-08-19T10:24:02;10.77;;;5.15;;
28130;SDS011;15418;42.634;23.374;2022-08-19T10:26:30;8.88;;;3.95;;
28130;SDS011;15418;42.634;23.374;2022-08-19T10:28:58;11.48;;;4.68;;
28130;SDS011;15418;42.634;23.374;2022-08-19T10:31:25;9.65;;;4.35;;
28130;SDS011;15418;42.634;23.374;2022-08-19T10:33:55;8.77;;;4.13;;
28130;SDS011;15418;42.634;23.374;2022-08-19T10:36:42;8.88;;;4.68;;
28130;SDS011;15418;42.634;23.374;2022-08-19T10:39:08;6.88;;;4.45;;
28130;SDS011;15418;42.634;23.374;2022-08-19T10:41:37;10.05;;;4.75;;
28130;SDS011;15418;42.634;23.374;2022-08-19T10:44:05;15.52;;;4.88;;
28130;SDS011;15418;42.634;23.374;2022-08-19T10:46:33;10.38;;;4.90;;
28130;SDS011;15418;42.634;23.374;2022-08-19T10:49:02;6.43;;;4.50;;
28130;SDS011;15418;42.634;23.374;2022-08-19T10:51:29;9.43;;;4.35;;
28130;SDS011;15418;42.634;23.374;2022-08-19T10:54:14;8.52;;;4.00;;
28130;SDS011;15418;42.634;23.374;2022-08-19T10:56:42;6.55;;;3.80;;
28130;SDS011;15418;42.634;23.374;2022-08-19T10:59:18;7.07;;;3.90;;
28130;SDS011;15418;42.634;23.374;2022-08-19T11:01:49;11.13;;;4.20;;
28130;SDS011;15418;42.634;23.374;2022-08-19T11:04:17;14.93;;;4.28;;
28130;SDS011;15418;42.634;23.374;2022-08-19T11:06:44;7.63;;;4.32;;
28130;SDS011;15418;42.634;23.374;2022-08-19T11:09:13;7.38;;;3.92;;
28130;SDS011;15418;42.634;23.374;2022-08-19T11:11:40;11.63;;;5.30;;
28130;SDS011;15418;42.634;23.374;2022-08-19T11:14:08;8.73;;;4.50;;
28130;SDS011;15418;42.634;23.374;2022-08-19T11:16:35;8.45;;;4.63;;
28130;SDS011;15418;42.634;23.374;2022-08-19T11:19:01;10.50;;;4.80;;
28130;SDS011;15418;42.634;23.374;2022-08-19T11:21:31;10.70;;;4.00;;
28130;SDS011;15418;42.634;23.374;2022-08-19T11:24:02;7.93;;;3.95;;
28130;SDS011;15418;42.634;23.374;2022-08-19T11:26:31;8.23;;;4.32;;
28130;SDS011;15418;42.634;23.374;2022-08-19T11:28:57;7.13;;;4.18;;
28130;SDS011;15418;42.634;23.374;2022-08-19T11:31:25;15.20;;;5.03;;
28130;SDS011;15418;42.634;23.374;2022-08-19T11:33:55;10.65;;;4.43;;
28130;SDS011;15418;42.634;23.374;2022-08-19T11:36:25;7.38;;;4.63;;
28130;SDS011;15418;42.634;23.374;2022-08-19T11:38:51;14.88;;;5.32;;
28130;SDS011;15418;42.634;23.374;2022-08-19T11:41:18;12.10;;;4.90;;
28130;SDS011;15418;42.634;23.374;2022-08-19T11:43:44;5.75;;;4.10;;
28130;SDS011;15418;42.634;23.374;2022-08-19T11:46:11;9.23;;;4.53;;
28130;SDS011;15418;42.634;23.374;2022-08-19T11:48:37;7.18;;;4.50;;
28130;SDS011;15418;42.634;23.374;2022-08-19T11:51:04;11.90;;;6.18;;
28130;SDS011;15418;42.634;23.374;2022-08-19T11:53:36;11.75;;;4.85;;
28130;SDS011;15418;42.634;23.374;2022-08-19T11:56:02;9.98;;;4.82;;
28130;SDS011;15418;42.634;23.374;2022-08-19T11:58:28;7.55;;;4.10;;
28130;SDS011;15418;42.634;23.374;2022-08-19T12:00:54;8.05;;;4.70;;
28130;SDS011;15418;42.634;23.374;2022-08-19T12:03:20;9.60;;;4.25;;
28130;SDS011;15418;42.634;23.374;2022-08-19T12:05:46;5.97;;;4.40;;
28130;SDS011;15418;42.634;23.374;2022-08-19T12:08:12;8.18;;;4.32;;
28130;SDS011;15418;42.634;23.374;2022-08-19T12:10:39;9.63;;;4.53;;
28130;SDS011;15418;42.634;23.374;2022-08-19T12:13:07;7.32;;;4.05;;
28130;SDS011;15418;42.634;23.374;2022-08-19T12:15:36;11.00;;;5.03;;
28130;SDS011;15418;42.634;23.374;2022-08-19T12:18:03;11.70;;;5.85;;
28130;SDS011;15418;42.634;23.374;2022-08-19T12:20:29;8.98;;;5.40;;
28130;SDS011;15418;42.634;23.374;2022-08-19T12:22:55;15.57;;;11.30;;
28130;SDS011;15418;42.634;23.374;2022-08-19T12:25:20;8.85;;;4.60;;
28130;SDS011;15418;42.634;23.374;2022-08-19T12:27:46;12.38;;;5.25;;
28130;SDS011;15418;42.634;23.374;2022-08-19T12:30:12;11.00;;;5.20;;
28130;SDS011;15418;42.634;23.374;2022-08-19T12:32:39;8.45;;;4.32;;
28130;SDS011;15418;42.634;23.374;2022-08-19T12:35:05;7.85;;;4.05;;
28130;SDS011;15418;42.634;23.374;2022-08-19T12:37:32;9.15;;;4.93;;
28130;SDS011;15418;42.634;23.374;2022-08-19T12:39:57;9.07;;;4.93;;
28130;SDS011;15418;42.634;23.374;2022-08-19T12:42:23;9.20;;;4.63;;
28130;SDS011;15418;42.634;23.374;2022-08-19T12:44:49;8.32;;;4.55;;
28130;SDS011;15418;42.634;23.374;2022-08-19T12:47:15;11.90;;;4.93;;
28130;SDS011;15418;42.634;23.374;2022-08-19T12:49:42;10.65;;;5.28;;
28130;SDS011;15418;42.634;23.374;2022-08-19T12:52:09;8.40;;;4.88;;
28130;SDS011;15418;42.634;23.374;2022-08-19T12:54:36;10.05;;;4.82;;
28130;SDS011;15418;42.634;23.374;2022-08-19T12:57:05;10.05;;;5.35;;
28130;SDS011;15418;42.634;23.374;2022-08-19T12:59:33;7.43;;;4.70;;
28130;SDS011;15418;42.634;23.374;2022-08-19T13:01:59;10.43;;;4.93;;
28130;SDS011;15418;42.634;23.374;2022-08-19T13:04:25;11.50;;;4.60;;
28130;SDS011;15418;42.634;23.374;2022-08-19T13:06:50;12.38;;;4.88;;
28130;SDS011;15418;42.634;23.374;2022-08-19T13:09:16;8.10;;;4.80;;
28130;SDS011;15418;42.634;23.374;2022-08-19T13:11:41;9.45;;;4.93;;
28130;SDS011;15418;42.634;23.374;2022-08-19T13:14:08;17.65;;;6.13;;
28130;SDS011;15418;42.634;23.374;2022-08-19T13:16:33;12.32;;;4.97;;
28130;SDS011;15418;42.634;23.374;2022-08-19T13:18:59;10.10;;;5.10;;
28130;SDS011;15418;42.634;23.374;2022-08-19T13:21:27;14.40;;;6.32;;
28130;SDS011;15418;42.634;23.374;2022-08-19T13:23:54;6.43;;;4.38;;
28130;SDS011;15418;42.634;23.374;2022-08-19T13:26:20;13.55;;;5.13;;
28130;SDS011;15418;42.634;23.374;2022-08-19T13:28:46;9.55;;;5.95;;
28130;SDS011;15418;42.634;23.374;2022-08-19T13:31:39;6.97;;;4.47;;
28130;SDS011;15418;42.634;23.374;2022-08-19T13:34:31;6.80;;;4.53;;
28130;SDS011;15418;42.634;23.374;2022-08-19T13:37:02;8.02;;;4.75;;
28130;SDS011;15418;42.634;23.374;2022-08-19T13:39:29;6.20;;;4.32;;
28130;SDS011;15418;42.634;23.374;2022-08-19T13:41:57;7.55;;;4.70;;
28130;SDS011;15418;42.634;23.374;2022-08-19T13:44:25;12.25;;;5.07;;
28130;SDS011;15418;42.634;23.374;2022-08-19T13:46:54;8.07;;;4.55;;
28130;SDS011;15418;42.634;23.374;2022-08-19T13:49:20;11.73;;;4.93;;
28130;SDS011;15418;42.634;23.374;2022-08-19T13:51:48;10.85;;;5.00;;
28130;SDS011;15418;42.634;23.374;2022-08-19T13:54:13;12.75;;;4.75;;
28130;SDS011;15418;42.634;23.374;2022-08-19T13:56:40;7.47;;;4.68;;
28130;SDS011;15418;42.634;23.374;2022-08-19T13:59:09;11.38;;;5.15;;
28130;SDS011;15418;42.634;23.374;2022-08-19T14:01:36;7.50;;;5.32;;
28130;SDS011;15418;42.634;23.374;2022-08-19T14:04:03;11.05;;;4.80;;
28130;SDS011;15418;42.634;23.374;2022-08-19T14:06:28;12.93;;;4.85;;
28130;SDS011;15418;42.634;23.374;2022-08-19T14:08:54;10.27;;;5.03;;
28130;SDS011;15418;42.634;23.374;2022-08-19T14:11:19;10.15;;;4.80;;
28130;SDS011;15418;42.634;23.374;2022-08-19T14:13:48;6.57;;;5.25;;
28130;SDS011;15418;42.634;23.374;2022-08-19T14:16:13;9.75;;;4.88;;
28130;SDS011;15418;42.634;23.374;2022-08-19T14:18:39;9.18;;;4.57;;
28130;SDS011;15418;42.634;23.374;2022-08-19T14:21:07;19.50;;;5.22;;
28130;SDS011;15418;42.634;23.374;2022-08-19T14:23:39;7.03;;;5.15;;
28130;SDS011;15418;42.634;23.374;2022-08-19T14:26:06;7.30;;;4.63;;
28130;SDS011;15418;42.634;23.374;2022-08-19T14:28:36;7.60;;;4.90;;
28130;SDS011;15418;42.634;23.374;2022-08-19T14:31:03;10.68;;;4.97;;
28130;SDS011;15418;42.634;23.374;2022-08-19T14:33:29;11.50;;;5.90;;
28130;SDS011;15418;42.634;23.374;2022-08-19T14:35:54;10.73;;;5.07;;
28130;SDS011;15418;42.634;23.374;2022-08-19T14:38:20;14.68;;;5.35;;
28130;SDS011;15418;42.634;23.374;2022-08-19T14:40:45;10.55;;;5.13;;
28130;SDS011;15418;42.634;23.374;2022-08-19T14:43:11;40.72;;;24.67;;
28130;SDS011;15418;42.634;23.374;2022-08-19T14:45:38;9.77;;;4.43;;
28130;SDS011;15418;42.634;23.374;2022-08-19T14:48:05;9.52;;;4.93;;
28130;SDS011;15418;42.634;23.374;2022-08-19T14:50:33;6.57;;;4.85;;
28130;SDS011;15418;42.634;23.374;2022-08-19T14:53:04;15.95;;;5.43;;